sensor_id;sensor_type;location;lat;lon;timestamp;pressure;altitude;pressure_sealevel;temperature;humidity
81812;BME280;71243;51.848;5.768;2023-09-08T00:01:54;101756.63;;;22.26;60.36
81812;BME280;71243;51.848;5.768;2023-09-08T00:04:20;101756.19;;;22.22;60.67
81812;BME280;71243;51.848;5.768;2023-09-08T00:06:45;101748.75;;;22.24;60.46
81812;BME280;71243;51.848;5.768;2023-09-08T00:09:13;101755.41;;;22.28;60.37
81812;BME280;71243;51.848;5.768;2023-09-08T00:11:38;101765.13;;;22.29;60.55
81812;BME280;71243;51.848;5.768;2023-09-08T00:14:04;101766.16;;;22.28;61.04
81812;BME280;71243;51.848;5.768;2023-09-08T00:16:29;101765.34;;;22.28;61.34
81812;BME280;71243;51.848;5.768;2023-09-08T00:18:55;101763.00;;;22.18;62.87
81812;BME280;71243;51.848;5.768;2023-09-08T00:21:20;101766.97;;;22.22;64.08
81812;BME280;71243;51.848;5.768;2023-09-08T00:23:48;101765.91;;;22.17;63.05
81812;BME280;71243;51.848;5.768;2023-09-08T00:26:13;101764.84;;;22.11;63.50
81812;BME280;71243;51.848;5.768;2023-09-08T00:28:39;101760.91;;;22.07;62.73
81812;BME280;71243;51.848;5.768;2023-09-08T00:31:04;101756.94;;;22.03;62.68
81812;BME280;71243;51.848;5.768;2023-09-08T00:33:32;101765.44;;;22.00;62.13
81812;BME280;71243;51.848;5.768;2023-09-08T00:35:58;101759.84;;;22.02;62.07
81812;BME280;71243;51.848;5.768;2023-09-08T00:38:23;101749.88;;;22.02;61.63
81812;BME280;71243;51.848;5.768;2023-09-08T00:40:48;101758.38;;;21.99;62.76
81812;BME280;71243;51.848;5.768;2023-09-08T00:43:14;101756.25;;;21.88;62.99
81812;BME280;71243;51.848;5.768;2023-09-08T00:45:41;101756.25;;;21.88;62.63
81812;BME280;71243;51.848;5.768;2023-09-08T00:48:07;101759.56;;;21.84;62.77
81812;BME280;71243;51.848;5.768;2023-09-08T00:50:33;101759.97;;;21.81;62.40
81812;BME280;71243;51.848;5.768;2023-09-08T00:52:59;101758.28;;;21.79;62.66
81812;BME280;71243;51.848;5.768;2023-09-08T00:55:24;101757.59;;;21.77;62.41
81812;BME280;71243;51.848;5.768;2023-09-08T00:57:53;101764.25;;;21.75;62.37
81812;BME280;71243;51.848;5.768;2023-09-08T01:00:18;101762.75;;;21.72;61.84
81812;BME280;71243;51.848;5.768;2023-09-08T01:02:46;101769.38;;;21.70;62.28
81812;BME280;71243;51.848;5.768;2023-09-08T01:05:13;101763.38;;;21.68;62.01
81812;BME280;71243;51.848;5.768;2023-09-08T01:07:41;101765.44;;;21.72;62.04
81812;BME280;71243;51.848;5.768;2023-09-08T01:10:07;101760.44;;;21.63;62.74
81812;BME280;71243;51.848;5.768;2023-09-08T01:12:33;101752.53;;;21.61;63.55
81812;BME280;71243;51.848;5.768;2023-09-08T01:14:58;101746.31;;;21.54;63.88
81812;BME280;71243;51.848;5.768;2023-09-08T01:17:25;101750.63;;;21.49;63.70
81812;BME280;71243;51.848;5.768;2023-09-08T01:20:10;101753.06;;;21.44;63.84
81812;BME280;71243;51.848;5.768;2023-09-08T01:23:11;101748.72;;;21.43;63.74
81812;BME280;71243;51.848;5.768;2023-09-08T01:26:07;101755.72;;;21.37;63.51
81812;BME280;71243;51.848;5.768;2023-09-08T01:28:31;101756.34;;;21.39;64.15
81812;BME280;71243;51.848;5.768;2023-09-08T01:30:57;101749.25;;;21.32;65.01
81812;BME280;71243;51.848;5.768;2023-09-08T01:33:23;101752.16;;;21.30;65.54
81812;BME280;71243;51.848;5.768;2023-09-08T01:35:48;101755.00;;;21.22;65.54
81812;BME280;71243;51.848;5.768;2023-09-08T01:38:14;101747.28;;;21.19;65.37
81812;BME280;71243;51.848;5.768;2023-09-08T01:40:39;101746.41;;;21.12;65.89
81812;BME280;71243;51.848;5.768;2023-09-08T01:43:05;101749.75;;;21.14;65.87
81812;BME280;71243;51.848;5.768;2023-09-08T01:45:30;101744.38;;;21.14;65.54
81812;BME280;71243;51.848;5.768;2023-09-08T01:47:55;101750.78;;;21.13;65.43
81812;BME280;71243;51.848;5.768;2023-09-08T01:50:20;101745.22;;;21.15;65.16
81812;BME280;71243;51.848;5.768;2023-09-08T01:52:45;101746.84;;;21.16;65.14
81812;BME280;71243;51.848;5.768;2023-09-08T01:55:11;101744.00;;;21.17;65.25
81812;BME280;71243;51.848;5.768;2023-09-08T01:57:36;101747.50;;;21.18;65.77
81812;BME280;71243;51.848;5.768;2023-09-08T02:00:01;101741.69;;;21.14;65.89
81812;BME280;71243;51.848;5.768;2023-09-08T02:02:27;101743.38;;;21.15;65.61
81812;BME280;71243;51.848;5.768;2023-09-08T02:04:52;101738.78;;;21.16;65.39
81812;BME280;71243;51.848;5.768;2023-09-08T02:07:17;101747.66;;;21.10;66.15
81812;BME280;71243;51.848;5.768;2023-09-08T02:09:42;101745.59;;;21.12;66.27
81812;BME280;71243;51.848;5.768;2023-09-08T02:12:08;101746.81;;;21.09;66.29
81812;BME280;71243;51.848;5.768;2023-09-08T02:14:35;101744.97;;;21.10;66.73
81812;BME280;71243;51.848;5.768;2023-09-08T02:17:01;101741.63;;;21.08;66.81
81812;BME280;71243;51.848;5.768;2023-09-08T02:19:26;101740.81;;;21.07;68.16
81812;BME280;71243;51.848;5.768;2023-09-08T02:21:51;101739.56;;;21.03;67.94
81812;BME280;71243;51.848;5.768;2023-09-08T02:24:16;101738.06;;;21.01;68.54
81812;BME280;71243;51.848;5.768;2023-09-08T02:26:45;101740.13;;;20.99;68.50
81812;BME280;71243;51.848;5.768;2023-09-08T02:29:10;101738.06;;;21.01;68.44
81812;BME280;71243;51.848;5.768;2023-09-08T02:31:35;101740.69;;;20.94;69.05
81812;BME280;71243;51.848;5.768;2023-09-08T02:34:01;101739.63;;;20.95;68.77
81812;BME280;71243;51.848;5.768;2023-09-08T02:36:26;101741.03;;;20.91;68.65
81812;BME280;71243;51.848;5.768;2023-09-08T02:38:55;101740.94;;;20.78;67.85
81812;BME280;71243;51.848;5.768;2023-09-08T02:41:20;101734.94;;;20.76;67.87
81812;BME280;71243;51.848;5.768;2023-09-08T02:43:46;101743.19;;;20.74;67.39
81812;BME280;71243;51.848;5.768;2023-09-08T02:46:11;101735.53;;;20.71;67.24
81812;BME280;71243;51.848;5.768;2023-09-08T02:48:37;101743.28;;;20.66;67.59
81812;BME280;71243;51.848;5.768;2023-09-08T02:51:03;101743.00;;;20.55;68.33
81812;BME280;71243;51.848;5.768;2023-09-08T02:53:28;101742.16;;;20.54;68.62
81812;BME280;71243;51.848;5.768;2023-09-08T02:55:54;101743.00;;;20.55;68.51
81812;BME280;71243;51.848;5.768;2023-09-08T02:58:19;101737.22;;;20.58;69.64
81812;BME280;71243;51.848;5.768;2023-09-08T03:00:48;101751.28;;;20.60;69.80
81812;BME280;71243;51.848;5.768;2023-09-08T03:03:13;101744.09;;;20.60;69.42
81812;BME280;71243;51.848;5.768;2023-09-08T03:05:38;101740.50;;;20.53;69.80
81812;BME280;71243;51.848;5.768;2023-09-08T03:08:04;101747.72;;;20.53;69.50
81812;BME280;71243;51.848;5.768;2023-09-08T03:10:29;101743.38;;;20.52;69.82
81812;BME280;71243;51.848;5.768;2023-09-08T03:12:58;101739.22;;;20.49;69.87
81812;BME280;71243;51.848;5.768;2023-09-08T03:15:23;101741.91;;;20.49;69.62
81812;BME280;71243;51.848;5.768;2023-09-08T03:17:48;101740.59;;;20.45;69.66
81812;BME280;71243;51.848;5.768;2023-09-08T03:20:14;101741.84;;;20.43;70.65
81812;BME280;71243;51.848;5.768;2023-09-08T03:22:39;101741.13;;;20.34;70.39
81812;BME280;71243;51.848;5.768;2023-09-08T03:25:07;101738.00;;;20.31;69.88
81812;BME280;71243;51.848;5.768;2023-09-08T03:27:33;101739.63;;;20.32;70.46
81812;BME280;71243;51.848;5.768;2023-09-08T03:29:58;101739.91;;;20.37;70.14
81812;BME280;71243;51.848;5.768;2023-09-08T03:32:23;101732.03;;;20.35;70.30
81812;BME280;71243;51.848;5.768;2023-09-08T03:34:48;101736.56;;;20.35;70.37
81812;BME280;71243;51.848;5.768;2023-09-08T03:37:14;101728.00;;;20.25;71.31
81812;BME280;71243;51.848;5.768;2023-09-08T03:39:39;101735.78;;;20.20;71.28
81812;BME280;71243;51.848;5.768;2023-09-08T03:42:04;101734.75;;;20.21;71.53
81812;BME280;71243;51.848;5.768;2023-09-08T03:44:30;101736.03;;;20.10;72.13
81812;BME280;71243;51.848;5.768;2023-09-08T03:46:55;101736.69;;;20.12;72.55
81812;BME280;71243;51.848;5.768;2023-09-08T03:49:20;101742.50;;;20.16;72.02
81812;BME280;71243;51.848;5.768;2023-09-08T03:51:46;101736.50;;;20.14;71.77
81812;BME280;71243;51.848;5.768;2023-09-08T03:54:11;101727.44;;;20.15;71.76
81812;BME280;71243;51.848;5.768;2023-09-08T03:56:36;101729.88;;;20.10;71.99
81812;BME280;71243;51.848;5.768;2023-09-08T03:59:01;101730.22;;;20.07;72.08
81812;BME280;71243;51.848;5.768;2023-09-08T04:01:27;101727.72;;;20.05;71.59
81812;BME280;71243;51.848;5.768;2023-09-08T04:03:52;101730.03;;;20.08;71.13
81812;BME280;71243;51.848;5.768;2023-09-08T04:06:17;101730.50;;;20.12;70.80
81812;BME280;71243;51.848;5.768;2023-09-08T04:08:42;101731.06;;;20.07;71.33
81812;BME280;71243;51.848;5.768;2023-09-08T04:11:08;101732.09;;;20.06;71.12
81812;BME280;71243;51.848;5.768;2023-09-08T04:13:33;101728.38;;;20.07;70.90
81812;BME280;71243;51.848;5.768;2023-09-08T04:15:58;101734.94;;;20.05;71.53
81812;BME280;71243;51.848;5.768;2023-09-08T04:18:23;101728.03;;;19.96;72.29
81812;BME280;71243;51.848;5.768;2023-09-08T04:20:49;101728.66;;;19.98;72.09
81812;BME280;71243;51.848;5.768;2023-09-08T04:23:14;101725.63;;;20.01;71.75
81812;BME280;71243;51.848;5.768;2023-09-08T04:25:39;101724.97;;;19.99;71.58
81812;BME280;71243;51.848;5.768;2023-09-08T04:28:04;101720.53;;;19.91;72.07
81812;BME280;71243;51.848;5.768;2023-09-08T04:30:30;101720.66;;;19.83;72.29
81812;BME280;71243;51.848;5.768;2023-09-08T04:32:55;101722.03;;;19.79;72.11
81812;BME280;71243;51.848;5.768;2023-09-08T04:35:20;101720.94;;;19.74;72.41
81812;BME280;71243;51.848;5.768;2023-09-08T04:37:46;101724.28;;;19.76;72.53
81812;BME280;71243;51.848;5.768;2023-09-08T04:40:11;101720.28;;;19.72;72.43
81812;BME280;71243;51.848;5.768;2023-09-08T04:42:36;101723.09;;;19.78;71.85
81812;BME280;71243;51.848;5.768;2023-09-08T04:45:01;101727.78;;;19.76;71.86
81812;BME280;71243;51.848;5.768;2023-09-08T04:47:27;101714.13;;;19.71;72.43
81812;BME280;71243;51.848;5.768;2023-09-08T04:49:52;101724.84;;;19.71;72.49
81812;BME280;71243;51.848;5.768;2023-09-08T04:52:17;101723.81;;;19.72;72.66
81812;BME280;71243;51.848;5.768;2023-09-08T04:54:43;101729.81;;;19.74;72.68
81812;BME280;71243;51.848;5.768;2023-09-08T04:57:08;101726.94;;;19.76;72.63
81812;BME280;71243;51.848;5.768;2023-09-08T04:59:33;101730.47;;;19.76;72.76
81812;BME280;71243;51.848;5.768;2023-09-08T05:01:58;101718.25;;;19.74;72.93
81812;BME280;71243;51.848;5.768;2023-09-08T05:04:24;101723.81;;;19.72;73.22
81812;BME280;71243;51.848;5.768;2023-09-08T05:06:49;101725.19;;;19.68;73.40
81812;BME280;71243;51.848;5.768;2023-09-08T05:09:14;101723.63;;;19.59;73.94
81812;BME280;71243;51.848;5.768;2023-09-08T05:11:39;101726.88;;;19.54;73.54
81812;BME280;71243;51.848;5.768;2023-09-08T05:14:05;101725.22;;;19.53;73.49
81812;BME280;71243;51.848;5.768;2023-09-08T05:16:30;101727.72;;;19.55;73.23
81812;BME280;71243;51.848;5.768;2023-09-08T05:18:58;101726.03;;;19.54;72.75
81812;BME280;71243;51.848;5.768;2023-09-08T05:21:24;101723.44;;;19.46;72.92
81812;BME280;71243;51.848;5.768;2023-09-08T05:23:49;101720.97;;;19.44;73.09
81812;BME280;71243;51.848;5.768;2023-09-08T05:26:14;101731.19;;;19.55;73.44
81812;BME280;71243;51.848;5.768;2023-09-08T05:28:39;101732.63;;;19.51;73.82
81812;BME280;71243;51.848;5.768;2023-09-08T05:31:04;101739.16;;;19.49;73.00
81812;BME280;71243;51.848;5.768;2023-09-08T05:33:30;101729.75;;;19.53;72.82
81812;BME280;71243;51.848;5.768;2023-09-08T05:35:55;101727.91;;;19.53;72.28
81812;BME280;71243;51.848;5.768;2023-09-08T05:38:20;101731.19;;;19.55;71.98
81812;BME280;71243;51.848;5.768;2023-09-08T05:40:46;101732.50;;;19.59;71.98
81812;BME280;71243;51.848;5.768;2023-09-08T05:43:11;101730.84;;;19.58;71.72
81812;BME280;71243;51.848;5.768;2023-09-08T05:45:36;101737.22;;;19.57;72.14
81812;BME280;71243;51.848;5.768;2023-09-08T05:48:03;101736.69;;;19.62;72.22
81812;BME280;71243;51.848;5.768;2023-09-08T05:50:28;101740.81;;;19.64;72.10
81812;BME280;71243;51.848;5.768;2023-09-08T05:52:53;101742.78;;;19.71;72.19
81812;BME280;71243;51.848;5.768;2023-09-08T05:55:19;101743.44;;;19.73;72.27
81812;BME280;71243;51.848;5.768;2023-09-08T05:57:44;101742.66;;;19.79;72.40
81812;BME280;71243;51.848;5.768;2023-09-08T06:00:09;101749.44;;;19.75;72.62
81812;BME280;71243;51.848;5.768;2023-09-08T06:02:35;101744.53;;;19.78;72.52
81812;BME280;71243;51.848;5.768;2023-09-08T06:05:00;101741.00;;;19.78;73.15
81812;BME280;71243;51.848;5.768;2023-09-08T06:07:25;101744.16;;;19.81;72.07
81812;BME280;71243;51.848;5.768;2023-09-08T06:09:51;101746.72;;;19.89;72.24
81812;BME280;71243;51.848;5.768;2023-09-08T06:12:16;101750.06;;;19.91;71.66
81812;BME280;71243;51.848;5.768;2023-09-08T06:14:42;101747.84;;;19.95;71.09
81812;BME280;71243;51.848;5.768;2023-09-08T06:17:08;101750.97;;;19.98;71.13
81812;BME280;71243;51.848;5.768;2023-09-08T06:19:33;101752.72;;;20.06;71.08
81812;BME280;71243;51.848;5.768;2023-09-08T06:22:01;101750.50;;;20.09;70.27
81812;BME280;71243;51.848;5.768;2023-09-08T06:24:26;101755.47;;;20.12;70.30
81812;BME280;71243;51.848;5.768;2023-09-08T06:26:52;101748.38;;;20.19;70.97
81812;BME280;71243;51.848;5.768;2023-09-08T06:29:17;101750.50;;;20.24;70.29
81812;BME280;71243;51.848;5.768;2023-09-08T06:31:45;101749.34;;;20.33;70.68
81812;BME280;71243;51.848;5.768;2023-09-08T06:34:10;101746.38;;;20.42;70.99
81812;BME280;71243;51.848;5.768;2023-09-08T06:36:36;101753.66;;;20.48;69.77
81812;BME280;71243;51.848;5.768;2023-09-08T06:39:01;101748.34;;;20.55;70.19
81812;BME280;71243;51.848;5.768;2023-09-08T06:41:27;101754.88;;;20.67;70.11
81812;BME280;71243;51.848;5.768;2023-09-08T06:43:52;101764.22;;;20.71;68.00
81812;BME280;71243;51.848;5.768;2023-09-08T06:46:17;101754.38;;;20.78;68.25
81812;BME280;71243;51.848;5.768;2023-09-08T06:48:43;101752.59;;;20.85;68.61
81812;BME280;71243;51.848;5.768;2023-09-08T06:51:08;101757.06;;;20.99;68.87
81812;BME280;71243;51.848;5.768;2023-09-08T06:53:33;101758.97;;;21.05;66.75
81812;BME280;71243;51.848;5.768;2023-09-08T06:55:59;101760.94;;;21.18;67.13
81812;BME280;71243;51.848;5.768;2023-09-08T06:58:24;101770.69;;;21.19;66.66
81812;BME280;71243;51.848;5.768;2023-09-08T07:00:49;101767.28;;;21.31;66.24
81812;BME280;71243;51.848;5.768;2023-09-08T07:03:15;101768.81;;;21.47;66.39
81812;BME280;71243;51.848;5.768;2023-09-08T07:05:40;101760.16;;;21.51;65.50
81812;BME280;71243;51.848;5.768;2023-09-08T07:08:05;101755.94;;;21.70;65.92
81812;BME280;71243;51.848;5.768;2023-09-08T07:10:30;101760.13;;;21.79;64.58
81812;BME280;71243;51.848;5.768;2023-09-08T07:12:56;101765.56;;;21.86;63.77
81812;BME280;71243;51.848;5.768;2023-09-08T07:15:21;101765.78;;;21.91;63.52
81812;BME280;71243;51.848;5.768;2023-09-08T07:17:46;101766.59;;;21.85;62.99
81812;BME280;71243;51.848;5.768;2023-09-08T07:20:12;101769.53;;;21.90;63.12
81812;BME280;71243;51.848;5.768;2023-09-08T07:22:37;101766.63;;;21.91;64.27
81812;BME280;71243;51.848;5.768;2023-09-08T07:25:03;101777.00;;;21.94;63.35
81812;BME280;71243;51.848;5.768;2023-09-08T07:27:28;101767.94;;;22.08;62.76
81812;BME280;71243;51.848;5.768;2023-09-08T07:29:53;101768.16;;;22.13;62.71
81812;BME280;71243;51.848;5.768;2023-09-08T07:32:19;101772.75;;;22.19;62.45
81812;BME280;71243;51.848;5.768;2023-09-08T07:34:44;101760.34;;;22.25;62.33
81812;BME280;71243;51.848;5.768;2023-09-08T07:37:09;101770.50;;;22.23;61.81
81812;BME280;71243;51.848;5.768;2023-09-08T07:39:35;101762.44;;;22.36;63.20
81812;BME280;71243;51.848;5.768;2023-09-08T07:42:00;101773.44;;;22.41;62.24
81812;BME280;71243;51.848;5.768;2023-09-08T07:44:26;101761.06;;;22.53;62.61
81812;BME280;71243;51.848;5.768;2023-09-08T07:47:00;101763.38;;;22.62;61.75
81812;BME280;71243;51.848;5.768;2023-09-08T07:49:25;101764.44;;;22.74;61.43
81812;BME280;71243;51.848;5.768;2023-09-08T07:51:51;101760.09;;;22.80;62.02
81812;BME280;71243;51.848;5.768;2023-09-08T07:54:16;101766.94;;;22.96;60.89
81812;BME280;71243;51.848;5.768;2023-09-08T07:56:41;101758.22;;;23.07;59.96
81812;BME280;71243;51.848;5.768;2023-09-08T07:59:07;101762.38;;;23.22;60.33
81812;BME280;71243;51.848;5.768;2023-09-08T08:01:32;101763.84;;;23.38;60.13
81812;BME280;71243;51.848;5.768;2023-09-08T08:03:57;101759.91;;;23.40;58.89
81812;BME280;71243;51.848;5.768;2023-09-08T08:06:23;101757.59;;;23.50;59.04
81812;BME280;71243;51.848;5.768;2023-09-08T08:08:48;101760.72;;;23.60;59.65
81812;BME280;71243;51.848;5.768;2023-09-08T08:11:15;101753.59;;;23.79;59.39
81812;BME280;71243;51.848;5.768;2023-09-08T08:13:40;101756.03;;;23.87;59.13
81812;BME280;71243;51.848;5.768;2023-09-08T08:16:06;101758.28;;;24.10;59.08
81812;BME280;71243;51.848;5.768;2023-09-08T08:18:31;101760.25;;;24.34;59.02
81812;BME280;71243;51.848;5.768;2023-09-08T08:20:56;101760.81;;;24.42;57.20
81812;BME280;71243;51.848;5.768;2023-09-08T08:23:22;101762.66;;;24.48;56.49
81812;BME280;71243;51.848;5.768;2023-09-08T08:25:49;101762.78;;;24.60;57.10
81812;BME280;71243;51.848;5.768;2023-09-08T08:28:14;101760.81;;;24.80;57.70
81812;BME280;71243;51.848;5.768;2023-09-08T08:30:42;101759.69;;;24.87;55.91
81812;BME280;71243;51.848;5.768;2023-09-08T08:33:08;101758.78;;;25.00;55.89
81812;BME280;71243;51.848;5.768;2023-09-08T08:35:33;101760.75;;;25.11;54.83
81812;BME280;71243;51.848;5.768;2023-09-08T08:37:59;101759.38;;;25.02;56.82
81812;BME280;71243;51.848;5.768;2023-09-08T08:40:24;101762.31;;;25.25;56.00
81812;BME280;71243;51.848;5.768;2023-09-08T08:42:54;101759.09;;;25.35;56.23
81812;BME280;71243;51.848;5.768;2023-09-08T08:45:20;101766.47;;;25.52;57.95
81812;BME280;71243;51.848;5.768;2023-09-08T08:47:48;101764.72;;;25.76;56.52
81812;BME280;71243;51.848;5.768;2023-09-08T08:50:13;101772.16;;;25.98;55.98
81812;BME280;71243;51.848;5.768;2023-09-08T08:52:39;101767.13;;;26.20;55.68
81812;BME280;71243;51.848;5.768;2023-09-08T08:55:05;101758.09;;;26.26;53.71
81812;BME280;71243;51.848;5.768;2023-09-08T08:57:30;101762.16;;;26.35;53.49
81812;BME280;71243;51.848;5.768;2023-09-08T08:59:56;101759.13;;;26.55;54.47
81812;BME280;71243;51.848;5.768;2023-09-08T09:02:22;101752.09;;;26.65;53.62
81812;BME280;71243;51.848;5.768;2023-09-08T09:04:50;101751.94;;;26.78;53.97
81812;BME280;71243;51.848;5.768;2023-09-08T09:07:18;101755.63;;;26.95;53.57
81812;BME280;71243;51.848;5.768;2023-09-08T09:09:43;101761.88;;;26.96;52.94
81812;BME280;71243;51.848;5.768;2023-09-08T09:12:09;101751.72;;;26.91;51.46
81812;BME280;71243;51.848;5.768;2023-09-08T09:14:34;101749.22;;;26.90;51.84
81812;BME280;71243;51.848;5.768;2023-09-08T09:17:03;101754.88;;;26.88;51.09
81812;BME280;71243;51.848;5.768;2023-09-08T09:19:28;101751.03;;;26.96;51.26
81812;BME280;71243;51.848;5.768;2023-09-08T09:21:55;101756.56;;;27.01;51.21
81812;BME280;71243;51.848;5.768;2023-09-08T09:24:35;101753.53;;;27.21;51.58
81812;BME280;71243;51.848;5.768;2023-09-08T09:27:01;101754.69;;;27.01;50.27
81812;BME280;71243;51.848;5.768;2023-09-08T09:29:27;101751.63;;;26.98;51.21
81812;BME280;71243;51.848;5.768;2023-09-08T09:31:54;101757.53;;;27.06;51.62
81812;BME280;71243;51.848;5.768;2023-09-08T09:34:21;101751.06;;;27.31;50.60
81812;BME280;71243;51.848;5.768;2023-09-08T09:36:50;101751.31;;;27.41;51.31
81812;BME280;71243;51.848;5.768;2023-09-08T09:39:25;101747.75;;;27.52;50.40
81812;BME280;71243;51.848;5.768;2023-09-08T09:41:54;101749.63;;;27.63;50.34
81812;BME280;71243;51.848;5.768;2023-09-08T09:44:21;101755.75;;;27.70;50.59
81812;BME280;71243;51.848;5.768;2023-09-08T09:46:52;101751.03;;;27.77;49.09
81812;BME280;71243;51.848;5.768;2023-09-08T09:49:17;101751.66;;;27.67;49.46
81812;BME280;71243;51.848;5.768;2023-09-08T09:51:43;101753.59;;;27.83;50.08
81812;BME280;71243;51.848;5.768;2023-09-08T09:54:09;101756.47;;;27.77;50.35
81812;BME280;71243;51.848;5.768;2023-09-08T09:56:37;101749.84;;;27.73;50.49
81812;BME280;71243;51.848;5.768;2023-09-08T09:59:03;101753.28;;;27.91;49.96
81812;BME280;71243;51.848;5.768;2023-09-08T10:01:29;101752.72;;;28.18;49.59
81812;BME280;71243;51.848;5.768;2023-09-08T10:03:55;101754.69;;;28.22;49.62
81812;BME280;71243;51.848;5.768;2023-09-08T10:06:21;101751.19;;;28.38;47.99
81812;BME280;71243;51.848;5.768;2023-09-08T10:08:47;101748.06;;;28.58;47.26
81812;BME280;71243;51.848;5.768;2023-09-08T10:11:13;101747.84;;;28.76;48.81
81812;BME280;71243;51.848;5.768;2023-09-08T10:13:45;101748.94;;;28.75;47.71
81812;BME280;71243;51.848;5.768;2023-09-08T10:16:15;101753.69;;;28.84;46.60
81812;BME280;71243;51.848;5.768;2023-09-08T10:18:44;101747.63;;;29.10;46.84
81812;BME280;71243;51.848;5.768;2023-09-08T10:21:10;101744.72;;;29.00;47.07
81812;BME280;71243;51.848;5.768;2023-09-08T10:23:49;101753.78;;;29.06;47.91
81812;BME280;71243;51.848;5.768;2023-09-08T10:26:18;101733.56;;;29.35;47.58
81812;BME280;71243;51.848;5.768;2023-09-08T10:28:46;101734.25;;;29.64;46.54
81812;BME280;71243;51.848;5.768;2023-09-08T10:31:12;101732.84;;;29.40;47.14
81812;BME280;71243;51.848;5.768;2023-09-08T10:33:38;101736.41;;;29.24;46.97
81812;BME280;71243;51.848;5.768;2023-09-08T10:36:04;101743.50;;;29.25;47.53
81812;BME280;71243;51.848;5.768;2023-09-08T10:38:33;101737.50;;;29.44;48.57
81812;BME280;71243;51.848;5.768;2023-09-08T10:43:46;101737.31;;;29.51;47.54
81812;BME280;71243;51.848;5.768;2023-09-08T10:46:22;101737.56;;;29.66;46.26
81812;BME280;71243;51.848;5.768;2023-09-08T10:48:47;101735.50;;;29.73;46.21
81812;BME280;71243;51.848;5.768;2023-09-08T10:51:19;101730.09;;;29.78;46.83
81812;BME280;71243;51.848;5.768;2023-09-08T10:53:47;101731.63;;;29.90;46.53
81812;BME280;71243;51.848;5.768;2023-09-08T10:56:13;101730.94;;;29.78;45.80
81812;BME280;71243;51.848;5.768;2023-09-08T10:58:38;101726.00;;;29.75;46.49
81812;BME280;71243;51.848;5.768;2023-09-08T11:01:06;101733.59;;;29.57;46.83
81812;BME280;71243;51.848;5.768;2023-09-08T11:06:06;101733.41;;;30.01;46.84
81812;BME280;71243;51.848;5.768;2023-09-08T11:08:41;101731.41;;;29.97;46.72
81812;BME280;71243;51.848;5.768;2023-09-08T11:11:07;101717.22;;;29.95;46.86
81812;BME280;71243;51.848;5.768;2023-09-08T11:13:32;101722.69;;;30.21;46.17
81812;BME280;71243;51.848;5.768;2023-09-08T11:15:57;101717.16;;;30.33;46.24
81812;BME280;71243;51.848;5.768;2023-09-08T11:18:30;101729.41;;;30.62;45.47
81812;BME280;71243;51.848;5.768;2023-09-08T11:20:56;101719.69;;;30.71;45.49
81812;BME280;71243;51.848;5.768;2023-09-08T11:23:21;101722.19;;;30.78;44.55
81812;BME280;71243;51.848;5.768;2023-09-08T11:25:49;101720.88;;;30.80;44.79
81812;BME280;71243;51.848;5.768;2023-09-08T11:28:16;101721.75;;;30.59;46.64
81812;BME280;71243;51.848;5.768;2023-09-08T11:30:41;101723.03;;;30.52;46.62
81812;BME280;71243;51.848;5.768;2023-09-08T11:33:19;101717.75;;;30.67;44.83
81812;BME280;71243;51.848;5.768;2023-09-08T11:35:45;101720.34;;;30.83;44.43
81812;BME280;71243;51.848;5.768;2023-09-08T11:38:14;101719.63;;;30.93;44.26
81812;BME280;71243;51.848;5.768;2023-09-08T11:40:42;101726.75;;;30.99;43.70
81812;BME280;71243;51.848;5.768;2023-09-08T11:43:08;101719.22;;;31.11;44.54
81812;BME280;71243;51.848;5.768;2023-09-08T11:45:36;101712.53;;;31.34;43.46
81812;BME280;71243;51.848;5.768;2023-09-08T11:48:03;101723.81;;;31.47;43.58
81812;BME280;71243;51.848;5.768;2023-09-08T11:50:30;101714.28;;;31.50;44.09
81812;BME280;71243;51.848;5.768;2023-09-08T11:52:55;101724.41;;;31.12;43.92
81812;BME280;71243;51.848;5.768;2023-09-08T11:55:22;101722.16;;;31.04;42.78
81812;BME280;71243;51.848;5.768;2023-09-08T11:57:49;101719.84;;;31.23;43.06
81812;BME280;71243;51.848;5.768;2023-09-08T12:00:18;101722.28;;;31.24;42.80
81812;BME280;71243;51.848;5.768;2023-09-08T12:02:44;101723.31;;;31.13;42.41
81812;BME280;71243;51.848;5.768;2023-09-08T12:05:19;101713.47;;;31.12;42.61
81812;BME280;71243;51.848;5.768;2023-09-08T12:07:45;101712.72;;;30.85;41.80
81812;BME280;71243;51.848;5.768;2023-09-08T12:10:10;101719.44;;;30.46;43.31
81812;BME280;71243;51.848;5.768;2023-09-08T12:12:47;101713.56;;;30.59;44.20
81812;BME280;71243;51.848;5.768;2023-09-08T12:15:33;101709.75;;;30.60;44.32
81812;BME280;71243;51.848;5.768;2023-09-08T12:18:05;101717.19;;;30.96;43.39
81812;BME280;71243;51.848;5.768;2023-09-08T12:20:32;101711.97;;;30.90;44.08
81812;BME280;71243;51.848;5.768;2023-09-08T12:22:59;101712.72;;;31.27;41.84
81812;BME280;71243;51.848;5.768;2023-09-08T12:25:25;101709.63;;;31.55;41.65
81812;BME280;71243;51.848;5.768;2023-09-08T12:27:50;101710.75;;;31.59;40.54
81812;BME280;71243;51.848;5.768;2023-09-08T12:30:20;101705.38;;;31.79;39.95
81812;BME280;71243;51.848;5.768;2023-09-08T12:32:47;101700.28;;;31.98;40.00
81812;BME280;71243;51.848;5.768;2023-09-08T12:35:13;101707.41;;;32.09;40.54
81812;BME280;71243;51.848;5.768;2023-09-08T12:37:38;101706.41;;;31.63;41.59
81812;BME280;71243;51.848;5.768;2023-09-08T12:40:04;101700.16;;;31.73;40.78
81812;BME280;71243;51.848;5.768;2023-09-08T12:42:30;101705.38;;;31.79;40.43
81812;BME280;71243;51.848;5.768;2023-09-08T12:44:55;101705.72;;;31.93;40.59
81812;BME280;71243;51.848;5.768;2023-09-08T12:47:20;101701.09;;;31.93;41.21
81812;BME280;71243;51.848;5.768;2023-09-08T12:49:46;101700.47;;;31.81;41.12
81812;BME280;71243;51.848;5.768;2023-09-08T12:52:11;101701.53;;;31.75;42.63